createdAt,value
2023-01-27T07:34:52.513Z,140335.63
2023-01-27T07:39:58.137Z,140328.25
2023-01-27T07:45:04.544Z,140327.00
2023-01-27T07:50:10.385Z,140368.75
2023-01-27T07:55:14.072Z,140381.00
2023-01-27T08:00:21.845Z,140430.13
2023-01-27T08:05:27.133Z,140441.16
2023-01-27T08:10:33.709Z,140462.03
2023-01-27T08:15:37.718Z,140482.88
2023-01-27T08:20:44.448Z,140481.66
2023-01-27T08:25:53.140Z,140493.91
2023-01-27T08:30:56.683Z,140532.00
2023-01-27T08:36:05.917Z,140554.13
2023-01-27T08:41:11.150Z,140552.84
2023-01-27T08:46:14.774Z,140583.59
2023-01-27T08:51:21.524Z,140614.31
2023-01-27T08:56:25.413Z,140625.34
2023-01-27T09:01:28.920Z,140632.72
2023-01-27T09:06:34.753Z,140649.94
2023-01-27T09:11:38.651Z,140627.81
2023-01-27T09:16:42.161Z,140641.34
2023-01-27T09:21:49.626Z,140667.16
2023-01-27T09:26:55.558Z,140652.38
2023-01-27T09:32:01.347Z,140668.38
2023-01-27T09:37:09.671Z,140660.97
2023-01-27T09:42:31.078Z,140672.06
2023-01-27T09:47:48.276Z,140669.59
2023-01-27T09:53:04.724Z,140659.75
2023-01-27T09:58:11.120Z,140672.06
2023-01-27T10:03:31.230Z,140691.69
2023-01-27T10:08:49.510Z,140662.19
2023-01-27T10:14:01.177Z,140700.31
2023-01-27T10:19:19.667Z,140681.88
2023-01-27T10:24:29.512Z,140717.50
2023-01-27T10:29:39.875Z,140747.00
2023-01-27T10:34:48.521Z,140735.94
2023-01-27T10:40:26.905Z,140726.13
2023-01-27T10:45:40.255Z,140726.13
2023-01-27T10:50:46.368Z,140695.41
2023-01-27T10:55:53.879Z,140718.72
2023-01-27T11:11:58.366Z,140692.91
2023-01-27T11:17:13.989Z,140690.47
2023-01-27T11:22:20.977Z,140691.69
2023-01-27T11:27:31.433Z,140701.53
2023-01-27T11:32:45.199Z,140749.44
2023-01-27T11:37:50.078Z,140701.53
2023-01-27T11:42:54.967Z,140700.31
2023-01-27T11:48:03.976Z,140718.72
2023-01-27T11:53:12.680Z,140745.75
2023-01-27T11:58:20.559Z,140759.31
2023-01-27T12:03:33.274Z,140744.53
2023-01-27T12:08:41.554Z,140711.34
2023-01-27T12:13:49.605Z,140717.50
2023-01-27T12:18:59.999Z,140751.94
2023-01-27T12:24:03.896Z,140699.09
2023-01-27T12:29:09.369Z,140726.13
2023-01-27T12:34:25.181Z,140665.91
2023-01-27T12:39:34.916Z,140683.09
2023-01-27T12:44:42.292Z,140719.94
2023-01-27T12:49:48.846Z,140699.09
2023-01-27T12:54:54.324Z,140678.19
2023-01-27T12:59:59.147Z,140652.38
2023-01-27T13:05:08.388Z,140652.38
2023-01-27T13:10:18.317Z,140610.63
2023-01-27T13:15:24.616Z,140638.88
2023-01-27T13:20:31.285Z,140609.34
2023-01-27T13:25:39.817Z,140618.00
2023-01-27T13:30:46.361Z,140658.50
2023-01-27T13:35:55.392Z,140649.94
2023-01-27T13:40:59.061Z,140660.97
2023-01-27T13:46:07.828Z,140700.31
2023-01-27T13:51:15.600Z,140713.81
2023-01-27T13:56:27.010Z,140733.50
2023-01-27T14:01:43.072Z,140750.72
2023-01-27T14:06:53.275Z,140719.94
2023-01-27T14:12:01.827Z,140710.13
2023-01-27T14:17:13.400Z,140721.19
2023-01-27T14:22:26.114Z,140754.41
2023-01-27T14:27:35.964Z,140764.22
2023-01-27T14:32:45.430Z,140787.53
2023-01-27T14:37:54.915Z,140766.66
2023-01-27T14:43:04.858Z,140770.34
2023-01-27T14:48:18.724Z,140735.94
2023-01-27T14:53:31.857Z,140707.69
2023-01-27T14:58:41.971Z,140694.19
2023-01-27T15:04:05.181Z,140711.34
2023-01-27T15:09:17.729Z,140731.03
2023-01-27T15:14:37.954Z,140697.88
2023-01-27T15:19:51.445Z,140702.78
2023-01-27T15:25:12.679Z,140689.22
2023-01-27T15:30:24.143Z,140683.09
2023-01-27T15:35:34.535Z,140734.72
2023-01-27T15:41:04.816Z,140690.47
2023-01-27T15:46:31.495Z,140690.47
2023-01-27T15:51:37.868Z,140692.91
2023-01-27T15:56:42.631Z,140689.22
2023-01-27T16:01:48.545Z,140689.22
2023-01-27T16:07:02.489Z,140694.19
2023-01-27T16:12:08.228Z,140695.41
2023-01-27T16:17:17.802Z,140678.19
2023-01-27T16:22:24.059Z,140692.91
2023-01-27T16:27:35.940Z,140697.88
2023-01-27T16:32:42.672Z,140707.69
2023-01-27T16:38:01.693Z,140673.28
2023-01-27T16:43:07.520Z,140633.94
2023-01-27T16:48:19.833Z,140615.53
2023-01-27T16:53:26.202Z,140636.38
2023-01-27T16:58:44.689Z,140589.72
2023-01-27T17:03:50.022Z,140566.38
2023-01-27T17:09:00.739Z,140566.38
2023-01-27T17:14:28.688Z,140567.63
2023-01-27T17:19:35.158Z,140535.69
2023-01-27T17:24:44.707Z,140509.91
2023-01-27T17:29:53.779Z,140455.91
2023-01-27T17:34:58.641Z,140428.91
2023-01-27T17:40:04.294Z,140338.09
2023-01-27T17:45:24.745Z,140340.53
2023-01-27T17:50:31.555Z,140269.34
2023-01-27T17:55:36.703Z,140235.00
2023-01-27T18:00:41.234Z,140199.44
2023-01-27T18:05:49.916Z,140184.75
2023-01-27T18:11:09.961Z,140176.19
2023-01-27T18:16:17.604Z,140143.09
2023-01-27T18:21:24.140Z,140138.19
2023-01-27T18:26:31.299Z,140118.56
2023-01-27T18:31:36.142Z,140130.81
2023-01-27T18:36:52.313Z,140118.56
2023-01-27T18:41:59.535Z,140152.88
2023-01-27T18:47:21.812Z,140254.66
2023-01-27T18:52:25.736Z,140237.47
2023-01-27T18:57:33.658Z,140171.28
2023-01-27T19:02:37.429Z,140210.47
2023-01-27T19:07:40.821Z,140166.41
2023-01-27T19:12:45.908Z,140167.63
2023-01-27T19:17:49.358Z,140186.00
2023-01-27T19:22:53.747Z,140163.94
2023-01-27T19:28:02.585Z,140161.47
2023-01-27T19:33:16.481Z,140179.88
2023-01-27T19:38:19.914Z,140174.97
2023-01-27T19:43:27.452Z,140144.31
2023-01-27T19:48:33.789Z,140150.44
2023-01-27T19:53:39.838Z,140144.31
2023-01-27T19:58:49.954Z,140101.38
2023-01-27T20:03:58.058Z,140090.38
2023-01-27T20:09:03.443Z,140091.59
2023-01-27T20:14:11.999Z,140067.06
2023-01-27T20:19:16.252Z,140085.47
2023-01-27T20:24:20.401Z,140060.94
2023-01-27T20:29:25.523Z,140081.81
2023-01-27T20:34:31.479Z,140095.25
2023-01-27T20:39:38.177Z,140097.72
2023-01-27T20:44:43.218Z,140080.56
2023-01-27T20:49:46.614Z,140049.88
2023-01-27T20:54:49.935Z,140079.34
2023-01-27T20:59:54.771Z,140068.28
2023-01-27T21:04:58.170Z,140111.22
2023-01-27T21:10:01.699Z,140079.34
2023-01-27T21:15:10.002Z,140027.88
2023-01-27T21:20:14.158Z,139984.94
2023-01-27T21:25:18.632Z,139932.31
2023-01-27T21:30:25.694Z,139964.09
2023-01-27T21:35:31.144Z,139927.41
2023-01-27T21:40:34.736Z,139895.56
2023-01-27T21:45:39.772Z,139864.97
2023-01-27T21:50:43.176Z,139857.63
2023-01-27T21:55:46.566Z,139818.41
2023-01-27T22:00:51.357Z,139786.56
2023-01-27T22:05:54.859Z,139764.53
2023-01-27T22:11:05.265Z,139766.97
2023-01-27T22:16:15.447Z,139740.03
2023-01-27T22:21:19.001Z,139738.81
2023-01-27T22:26:22.771Z,139696.00
2023-01-27T22:31:27.679Z,139725.38
2023-01-27T22:36:31.125Z,139710.66
2023-01-27T22:41:34.727Z,139732.72
2023-01-27T22:46:46.238Z,139715.56
2023-01-27T22:51:49.681Z,139709.44
